AirNav   Pilot Hours Calculator
 
 1471 users online  

NH40 Eagles Nest Airport
New London, New Hampshire, USA

GOING TO NEW LONDON?


FAA INFORMATION EFFECTIVE 02 DECEMBER 2021

Location

FAA Identifier: NH40
Lat/Long: 43-24-16.2400N 071-56-55.1200W
43-24.270667N 071-56.918667W
43.4045111,-71.9486444
(estimated)
Elevation: 973 ft. / 297 m (estimated)
Variation: 16W (1985)
From city: 2 miles ESE of NEW LONDON, NH
Time zone: UTC -5 (UTC -4 during Daylight Saving Time)
Zip code: 03257

Airport Operations

Airport use: Private use. Permission required prior to landing
Activation date: 10/1981
Control tower: no
ARTCC: BOSTON CENTER
FSS: BANGOR FLIGHT SERVICE STATION
Attendance: AL DAYLIGHT HOURS
Segmented circle: no

Airport Communications

UNICOM: 122.8

Nearby radio navigation aids

VOR radial/distance  VOR name  Freq  Var
CONr319/19.7CONCORD VOR/DME112.9015W

 
NDB name  Hdg/Dist  Freq  Var  ID
CLAREMONT099/18.523316WCNH -.-. -. ....
HANOVER166/20.427615WLAH .-.. .- ....

Airport Services

Runway Information

Runway 14/32

Dimensions: 2800 x 30 ft. / 853 x 9 m
Surface: asphalt, in fair condition
RUNWAY 14  RUNWAY 32
Traffic pattern: leftleft
Obstructions: plinenone

Airport Ownership and Management from official FAA records

Ownership: Privately-owned
Owner: EAGLES NEST OWNERS ASSN
PO BOX 2460
NEW LONDON, NH 03257
Phone 603-526-6040
Manager: MANAGER
PO BOX 2460
NEW LONDON, NH 03257
Phone 603-526-6040

Additional Remarks

DO NOT CHART.
RY 32 LAND ONLY. RY 14 DEPART ONLY
NOT MAINTAINED IN WINTER.
FOR CD CTC BOSTON ARTCC AT 603-879-6859.

Instrument Procedures

There are no published instrument procedures at NH40.

Some nearby airports with instrument procedures:

2B3 - Parlin Field Airport (10 nm W)
KCNH - Claremont Municipal Airport (18 nm W)
KLEB - Lebanon Municipal Airport (20 nm NW)
KCON - Concord Municipal Airport (23 nm SE)
KVSF - Hartness State Airport (Springfield) (25 nm W)
 
Loc | Ops | Rwys | IFR | FBO | Links
Com | Nav | Svcs | Stats | Notes
Area around NH40 (Eagles Nest Airport)
 
Road maps at: MapQuest Bing Google
 
Aerial photo
WARNING: Photo may not be current or correct
Aerial photo of NH40 (Eagles Nest Airport)
Do you have a better or more recent aerial photo of Eagles Nest Airport that you would like to share? If so, please send us your photo.

 
Sectional chart

 
Airport distance calculator
Flying to Eagles Nest Airport? Find the distance to fly.

From to NH40

Sunrise and sunset
Times for 03-Dec-2021
 Local
(UTC-5)
 Zulu
(UTC)
Morning civil twilight06:3211:32
Sunrise07:0412:04
Sunset16:1221:12
Evening civil twilight16:4421:44

Current date and time
Zulu (UTC)  03-Dec-2021 20:03:52
Local (UTC-5)  03-Dec-2021 15:03:52
 
METAR
KLEB 
21nm NW 
031953Z 31014G21KT 10SM CLR 02/M15 A2983 RMK AO2 SLP108 T00221150
KCON 
23nm SE 
031951Z AUTO 29011G19KT 10SM CLR 03/M12 A2981 RMK AO2 SLP097 T00281117
K1P1 
24nm N 
031955Z AUTO 29014G21KT 10SM CLR 00/M13 A2981 RMK AO2 T00011135
KVSF 
25nm W 
031954Z AUTO 29013G21KT 10SM CLR 01/M12 A2987 RMK AO2 SLP119 T00111122
KLCI 
25nm NE 
031956Z AUTO 28013G19KT 10SM CLR 01/M13 A2980 RMK AO2 SLP095 T00111133 FZRANO
KEEN 
34nm SW 
031956Z AUTO 32007G19KT 10SM CLR 02/M11 A2986 RMK AO2 SLP119 T00221111 FZRANO $
KMHT 
36nm SE 
031953Z 29010G17KT 250V330 10SM FEW050 04/M11 A2982 RMK AO2 SLP113 T00391106
KAFN 
36nm S 
031952Z AUTO 29010G18KT 10SM CLR 02/M11 A2982 RMK AO2 SLP111 T00221111
TAF
KLEB 
21nm NW 
031730Z 0318/0418 31014G25KT P6SM BKN040 FM032300 30008KT P6SM FEW250
KCON 
23nm SE 
031730Z 0318/0418 30016G25KT P6SM BKN050 FM040000 29008KT P6SM FEW250
NOTAMs
Click for the latest NOTAMs
NOTAMs are issued by the DoD/FAA and will open in a separate window not controlled by AirNav.

 

 
 

Would you like to see your business listed on this page?

 If your business provides an interesting product or service to pilots, flight crews, aircraft, or users of the Eagles Nest Airport, you should consider listing it here.  To start the listing process, click on the button below
 
Add a business
 

Other Pages about Eagles Nest Airport

Update a link
 
Copyright © AirNav, LLC. All rights reserved. Privacy Policy  Contact